createdAt,value
2023-04-03T00:02:58.474Z,2.00
2023-04-03T00:07:44.674Z,1.90
2023-04-03T00:12:34.631Z,1.90
2023-04-03T00:17:21.744Z,1.80
2023-04-03T00:22:08.554Z,1.80
2023-04-03T00:27:00.605Z,1.80
2023-04-03T00:31:46.312Z,1.80
2023-04-03T00:36:33.511Z,1.60
2023-04-03T00:41:22.726Z,1.60
2023-04-03T00:46:15.318Z,1.60
2023-04-03T00:50:59.953Z,1.50
2023-04-03T00:55:49.197Z,1.40
2023-04-03T01:00:36.266Z,1.50
2023-04-03T01:05:23.184Z,1.30
2023-04-03T01:10:16.616Z,1.30
2023-04-03T01:15:03.779Z,1.20
2023-04-03T01:20:04.014Z,1.20
2023-04-03T01:24:50.737Z,1.30
2023-04-03T01:29:41.141Z,1.10
2023-04-03T01:34:31.440Z,1.00
2023-04-03T01:39:16.113Z,1.00
2023-04-03T01:44:02.551Z,0.90
2023-04-03T01:48:51.928Z,0.90
2023-04-03T01:53:39.222Z,0.90
2023-04-03T01:58:26.186Z,0.80
2023-04-03T02:03:14.014Z,0.70
2023-04-03T02:08:07.143Z,0.70
2023-04-03T02:12:53.692Z,0.70
2023-04-03T02:17:39.064Z,0.60
2023-04-03T02:22:28.497Z,0.50
2023-04-03T02:27:20.334Z,0.50
2023-04-03T02:32:05.469Z,0.30
2023-04-03T02:36:50.134Z,0.30
2023-04-03T02:41:41.414Z,0.20
2023-04-03T02:46:48.011Z,0.20
2023-04-03T02:51:32.912Z,0.00
2023-04-03T02:56:20.369Z,0.00
2023-04-03T03:01:06.218Z,-0.10
2023-04-03T03:06:11.180Z,-0.20
2023-04-03T03:11:01.634Z,-0.30
2023-04-03T03:15:46.547Z,-0.50
2023-04-03T03:20:39.456Z,-0.70
2023-04-03T03:25:23.495Z,-0.90
2023-04-03T03:30:12.042Z,-0.90
2023-04-03T03:35:01.502Z,-1.00
2023-04-03T03:39:48.091Z,-1.20
2023-04-03T03:44:35.619Z,-1.20
2023-04-03T03:49:23.798Z,-1.20
2023-04-03T03:54:11.822Z,-1.40
2023-04-03T03:58:59.613Z,-1.40
2023-04-03T04:03:46.547Z,-1.60
2023-04-03T04:08:36.696Z,-1.60
2023-04-03T04:13:25.097Z,-1.60
2023-04-03T04:18:10.660Z,-1.70
2023-04-03T04:22:58.596Z,-1.70
2023-04-03T04:27:49.004Z,-1.70
2023-04-03T04:32:35.974Z,-1.80
2023-04-03T04:37:21.719Z,-1.90
2023-04-03T04:42:16.733Z,-1.90
2023-04-03T04:47:17.863Z,-1.80
2023-04-03T04:52:01.752Z,-1.90
2023-04-03T04:56:52.796Z,-1.80
2023-04-03T05:01:40.640Z,-1.80
2023-04-03T05:06:31.295Z,-1.70
2023-04-03T05:11:15.087Z,-1.50
2023-04-03T05:16:03.305Z,-1.30
2023-04-03T05:20:52.841Z,-1.10
2023-04-03T05:25:39.935Z,-1.00
2023-04-03T05:30:27.461Z,-0.80
2023-04-03T05:35:14.205Z,-0.80
2023-04-03T05:40:05.969Z,-0.70
2023-04-03T05:44:51.485Z,-0.70
2023-04-03T05:49:41.644Z,-0.60
2023-04-03T05:54:27.841Z,-0.50
2023-04-03T05:59:32.578Z,-0.50
2023-04-03T06:04:22.379Z,-0.40
2023-04-03T06:09:06.055Z,-0.40
2023-04-03T06:13:58.466Z,-0.20
2023-04-03T06:18:42.298Z,-0.20
2023-04-03T06:23:30.945Z,-0.20
2023-04-03T06:28:20.486Z,-0.10
2023-04-03T06:33:07.052Z,-0.10
2023-04-03T06:37:53.679Z,-0.20
2023-04-03T06:43:00.109Z,-0.20
2023-04-03T06:47:46.302Z,-0.20
2023-04-03T06:52:35.974Z,-0.10
2023-04-03T06:57:22.569Z,0.00
2023-04-03T07:02:16.567Z,0.10
2023-04-03T07:06:59.969Z,0.00
2023-04-03T07:11:46.877Z,0.10
2023-04-03T07:16:36.857Z,0.30
2023-04-03T07:21:24.988Z,0.40
2023-04-03T07:26:10.436Z,0.40
2023-04-03T07:31:03.465Z,0.40
2023-04-03T07:35:47.876Z,0.40
2023-04-03T07:40:35.111Z,0.50
2023-04-03T07:45:24.936Z,0.70
2023-04-03T07:50:12.289Z,0.70
2023-04-03T07:54:59.335Z,0.80
2023-04-03T07:59:46.487Z,1.00
2023-04-03T08:04:39.824Z,0.90
2023-04-03T08:09:23.242Z,1.00
2023-04-03T08:14:17.266Z,1.10
2023-04-03T08:19:02.785Z,1.30
2023-04-03T08:23:51.138Z,1.60
2023-04-03T08:28:35.688Z,2.00
2023-04-03T08:33:25.522Z,2.30
2023-04-03T08:38:12.759Z,2.40
2023-04-03T08:43:29.052Z,2.60
2023-04-03T08:48:23.477Z,3.20
2023-04-03T08:53:14.285Z,3.20
2023-04-03T08:58:17.271Z,3.10
2023-04-03T09:03:00.810Z,3.20
2023-04-03T09:07:51.606Z,3.20
2023-04-03T09:12:40.637Z,3.30
2023-04-03T09:17:36.307Z,3.40
2023-04-03T09:22:36.473Z,3.80
2023-04-03T09:27:32.989Z,4.10
2023-04-03T09:32:31.582Z,4.50
2023-04-03T09:37:41.112Z,4.60
2023-04-03T09:42:27.329Z,5.20
2023-04-03T09:47:21.283Z,5.40
2023-04-03T09:52:21.574Z,5.70
2023-04-03T09:57:11.023Z,6.20
2023-04-03T10:02:02.081Z,6.60
2023-04-03T10:06:48.099Z,6.30
2023-04-03T10:11:31.525Z,5.80
2023-04-03T10:16:22.276Z,5.40
2023-04-03T10:21:14.474Z,5.40
2023-04-03T10:26:14.790Z,5.00
2023-04-03T10:31:12.023Z,5.70
2023-04-03T10:36:17.241Z,6.60
2023-04-03T10:41:10.129Z,6.50
2023-04-03T10:46:07.957Z,6.20
2023-04-03T10:51:00.001Z,7.50
2023-04-03T10:55:52.745Z,6.70
2023-04-03T11:00:50.421Z,6.60
2023-04-03T11:05:45.229Z,6.40
2023-04-03T11:10:40.134Z,6.30
2023-04-03T11:15:32.846Z,6.20
2023-04-03T11:20:20.619Z,6.10
2023-04-03T11:25:22.526Z,6.00
2023-04-03T11:30:28.369Z,6.00
2023-04-03T11:35:15.561Z,6.00
2023-04-03T11:40:03.873Z,5.60
2023-04-03T11:44:53.517Z,5.60
2023-04-03T11:50:00.731Z,5.90
2023-04-03T11:54:55.368Z,6.00
2023-04-03T11:59:47.483Z,5.80
2023-04-03T12:04:34.910Z,6.20
2023-04-03T12:09:27.977Z,6.30
2023-04-03T12:14:17.827Z,6.10
2023-04-03T12:19:04.680Z,5.90
2023-04-03T12:24:05.781Z,6.00
2023-04-03T12:28:53.939Z,6.10
2023-04-03T12:34:07.885Z,6.10
2023-04-03T12:39:16.828Z,6.20
2023-04-03T12:44:33.072Z,5.50
2023-04-03T12:49:42.659Z,5.20
2023-04-03T12:54:32.464Z,5.20
2023-04-03T12:59:19.128Z,5.60
2023-04-03T13:04:02.783Z,6.00
2023-04-03T13:08:53.587Z,6.00
2023-04-03T13:13:39.995Z,5.80
2023-04-03T13:18:33.411Z,5.60
2023-04-03T13:23:19.718Z,5.80
2023-04-03T13:28:14.082Z,5.70
2023-04-03T13:33:09.579Z,6.10
2023-04-03T13:37:58.993Z,6.30
2023-04-03T13:42:45.666Z,6.00
2023-04-03T13:47:45.354Z,5.60
2023-04-03T13:52:41.222Z,5.40
2023-04-03T13:57:24.927Z,5.20
2023-04-03T14:02:28.582Z,5.30
2023-04-03T14:07:19.085Z,5.70
2023-04-03T14:12:11.261Z,6.20
2023-04-03T14:17:06.289Z,5.50
2023-04-03T14:21:57.719Z,5.40
2023-04-03T14:26:43.061Z,5.20
2023-04-03T14:31:31.599Z,5.20
2023-04-03T14:36:23.239Z,5.30
2023-04-03T14:41:16.102Z,5.40
2023-04-03T14:46:13.748Z,5.10
2023-04-03T14:51:05.648Z,4.80
2023-04-03T14:55:52.622Z,4.50
2023-04-03T15:00:36.075Z,4.50
2023-04-03T15:05:23.518Z,4.40
2023-04-03T15:10:23.805Z,4.10
2023-04-03T15:15:13.682Z,4.00
2023-04-03T15:20:02.515Z,4.10
2023-04-03T15:24:51.197Z,4.30
2023-04-03T15:29:43.484Z,4.60
2023-04-03T15:34:26.841Z,4.80
2023-04-03T15:39:15.491Z,4.50
2023-04-03T15:44:02.593Z,4.30
2023-04-03T15:48:52.273Z,4.20
2023-04-03T15:53:41.565Z,4.10
2023-04-03T15:58:26.914Z,3.70
2023-04-03T16:03:19.171Z,3.60
2023-04-03T16:08:02.929Z,3.50
2023-04-03T16:12:49.004Z,3.30
2023-04-03T16:17:41.874Z,3.40
2023-04-03T16:22:31.631Z,3.40
2023-04-03T16:27:15.013Z,3.40
2023-04-03T16:32:01.202Z,3.20
2023-04-03T16:36:50.962Z,3.00
2023-04-03T16:41:43.148Z,2.90
2023-04-03T16:46:26.646Z,2.90
2023-04-03T16:51:16.011Z,2.80
2023-04-03T16:56:05.480Z,2.80
2023-04-03T17:00:50.948Z,2.70
2023-04-03T17:05:40.823Z,2.70
2023-04-03T17:10:27.739Z,2.60
2023-04-03T17:15:17.329Z,2.50
2023-04-03T17:20:03.411Z,2.30
2023-04-03T17:24:50.351Z,2.30
2023-04-03T17:29:41.437Z,2.20
2023-04-03T17:34:26.741Z,2.00
2023-04-03T17:39:19.025Z,1.90
2023-04-03T17:44:02.485Z,1.60
2023-04-03T17:48:52.271Z,1.30
2023-04-03T17:53:38.983Z,1.20
2023-04-03T17:58:32.230Z,1.10
2023-04-03T18:03:15.830Z,1.00
2023-04-03T18:08:04.456Z,1.00
2023-04-03T18:13:08.353Z,0.70
2023-04-03T18:23:31.134Z,0.10
2023-04-03T18:28:41.506Z,-0.40
2023-04-03T18:33:25.576Z,-0.40
2023-04-03T18:38:14.467Z,-0.40
2023-04-03T18:43:02.920Z,-0.10
2023-04-03T18:47:47.619Z,0.10
2023-04-03T18:52:35.636Z,0.40
2023-04-03T18:57:28.534Z,0.30
2023-04-03T19:02:16.006Z,0.10
2023-04-03T19:07:00.121Z,0.20
2023-04-03T19:11:47.988Z,0.40
2023-04-03T19:16:40.756Z,0.60
2023-04-03T19:21:26.375Z,0.80
2023-04-03T19:26:14.875Z,0.90
2023-04-03T19:30:59.892Z,1.00
2023-04-03T19:35:49.263Z,1.00
2023-04-03T19:45:57.650Z,1.10
2023-04-03T19:50:46.106Z,1.10
2023-04-03T19:55:33.341Z,1.20
2023-04-03T20:00:24.041Z,1.10
2023-04-03T20:05:08.818Z,1.10
2023-04-03T20:09:55.821Z,1.30
2023-04-03T20:14:47.092Z,1.30
2023-04-03T20:19:46.453Z,1.30
2023-04-03T20:24:36.394Z,1.20
2023-04-03T20:29:23.477Z,1.30
2023-04-03T20:34:12.073Z,1.20
2023-04-03T20:50:16.476Z,1.20
2023-04-03T20:55:18.403Z,1.10
2023-04-03T21:00:07.743Z,1.20
2023-04-03T21:04:55.216Z,1.10
2023-04-03T21:10:17.007Z,1.20
2023-04-03T21:15:46.238Z,1.20
2023-04-03T21:20:57.409Z,1.10
2023-04-03T21:25:43.732Z,1.20
2023-04-03T21:30:27.766Z,1.10
2023-04-03T21:35:17.475Z,1.20
2023-04-03T21:40:06.683Z,1.20
2023-04-03T21:44:52.060Z,1.20
2023-04-03T21:49:39.682Z,1.10
2023-04-03T21:54:33.373Z,1.20
2023-04-03T21:59:18.843Z,1.20
2023-04-03T22:04:03.521Z,1.20
2023-04-03T22:09:06.603Z,1.00
2023-04-03T22:13:58.320Z,1.10
2023-04-03T22:18:47.406Z,1.00
2023-04-03T22:23:31.154Z,1.00
2023-04-03T22:28:20.810Z,0.90
2023-04-03T22:33:08.562Z,0.90
2023-04-03T22:37:59.382Z,1.00
2023-04-03T22:42:43.677Z,1.00
2023-04-03T22:47:31.411Z,1.00
2023-04-03T22:52:24.340Z,1.00
2023-04-03T22:57:10.040Z,1.00
2023-04-03T23:01:55.277Z,1.00
2023-04-03T23:06:48.726Z,0.90
2023-04-03T23:11:32.491Z,1.00
2023-04-03T23:16:20.909Z,0.90
2023-04-03T23:21:11.277Z,0.90
2023-04-03T23:25:55.238Z,0.90
2023-04-03T23:30:46.053Z,1.00
2023-04-03T23:35:35.172Z,0.90
2023-04-03T23:40:19.041Z,0.90
2023-04-03T23:45:28.218Z,0.90
2023-04-03T23:50:12.613Z,0.90
2023-04-03T23:55:00.796Z,1.00
2023-04-03T23:59:49.356Z,1.00
